Main page
METAR-TAF:

METAR-TAF

Airports :

Euro, Netherlands

Oil platform

latitude: 51-59-52N, longitude: 3-16-30E, elevation: 18 m

Current weather observation

The report was made 48 minutes ago, at 17:55 UTC
Wind 15 kt from the North/Northeast with gusts up to 17 kt
Temperature 8°C
Humidity 93%
Pressure 1024 hPa
Visibility 10 km or more

METAR: EHSA 261755Z AUTO 03015G17KT 9999 ///////// 08/07 Q1024 W08/H7

Time: 20:43 (18:43 UTC)


TAF: missing

Weather observations and forecasts of more than 4000 airports (METAR and TAF reports).

The available stations are represented by yellow and red dots on the map.

Hover mouse over dot to see the name of the station.

Then click to see weather observations and forecasts.

To change the map : click on the green buttons with a black cross to zoom in, on the green button with a dash to zoom out, or on the green arrows for adjacent maps.


METAR-TAF: